• Join FlightAware (Why Join?)
  • Login
  • US Flag 
Rudolph Flight #1: Arrived! 
03:03AM EST


 

Airport Tracker/Info


-or-


 

Live Flight TrackerFlight Track Log ✈ SKW4664 ✈ 30-Apr-2013 ✈ KFSD - KMSP

Flight Track Log - Related Links

Times and Time Zones

All times are in EDT time to prevent confusion due to time zone crossing. See the SKW4664 flight status page for this flight to view local times or setup timezone preferences in your user account.

Time Position Orientation Groundspeed Altitude Reporting Facility
EDT Latitude Longitude Course Direction KTS MPH feet Rate Location/Type
12:03PM 43.6553 -96.6808 46° Northeast 199 229 5,000  Level Minneapolis Center
12:04PM 43.7017 -96.5947 53° Northeast 250 288 7,300 1,980 Climbing Minneapolis Center
12:05PM 43.8639 -96.2135 53° Northeast  Level FlightAware Approximate
12:05PM 43.7533 -96.5003 53° Northeast 281 323 9,200  Level Minneapolis Center
12:06PM 43.9369 -96.0804 52° Northeast  Level FlightAware Approximate
12:06PM 43.8119 -96.3886 54° Northeast 326 375 11,100  Level Minneapolis Center
12:07PM 44.0106 -95.9480 52° Northeast  Level FlightAware Approximate
12:07PM 43.8731 -96.2731 54° Northeast 357 411 13,300  Level Minneapolis Center
12:08PM 43.9353 -96.1558 54° Northeast 377 434 15,200 1,800 Climbing Minneapolis Center
12:09PM 44.0128 -96.0072 54° Northeast 402 463 17,000 1,560 Climbing Minneapolis Center
12:10PM 44.0672 -95.9067 53° Northeast 411 473 18,400 1,500 Climbing Minneapolis Center
12:11PM 44.1478 -95.7511 54° Northeast 418 481 20,200 1,560 Climbing Minneapolis Center
12:12PM 44.2169 -95.6189 54° Northeast 424 488 21,700 1,320 Climbing Minneapolis Center
12:13PM 44.2869 -95.4842 54° Northeast 429 494 23,000 600 Climbing Minneapolis Center
12:14PM 44.3747 -95.3111 55° Northeast 455 524 23,000  Level Minneapolis Center
12:15PM 44.4497 -95.1633 55° Northeast 466 536 23,000  Level Minneapolis Center
12:16PM 44.4992 -94.9953 68° East 468 539 23,000 -900 Level Minneapolis Center
12:17PM 44.5408 -94.8261 71° East 462 532 21,200 -1,920 Descending Minneapolis Center
12:18PM 44.5717 -94.6908 72° East 459 528 19,100 -2,700 Descending Minneapolis Center
12:19PM 44.6183 -94.4881 72° East 434 499 15,700 -2,520 Descending Minneapolis Center
12:20PM 44.6456 -94.3681 72° East 409 471 14,000 -2,100 Descending Minneapolis Center
12:21PM 44.6842 -94.1972 72° East 382 440 11,500 -1,500 Descending Minneapolis Center
12:22PM 44.7153 -94.0553 73° East 380 437 11,000 -300 Descending Minneapolis Center
12:23PM 44.7472 -93.9128 72° East 381 438 11,000  Level Minneapolis Center
12:24PM 44.7867 -93.7353 73° East 393 452 11,000 -300 Level Minneapolis Center
12:25PM 44.8175 -93.5961 73° East 378 435 10,500 -1,140 Descending Minneapolis Center
12:27PM 44.8456 -93.4681 73° East 345 397 8,700 -1,140 Descending Minneapolis Center
12:28PM 44.8636 -93.3464 78° East 319 367 8,000 -720 Descending Minneapolis Center
12:29PM 44.7864 -93.2911 153° Southeast 269 310 7,200 -1,140 Descending Minneapolis Center
12:30PM 44.7058 -93.2719 170° South 256 295 5,700 -1,500 Descending Minneapolis Center
12:31PM 44.6644 -93.2100 133° Southeast 271 312 4,100 -780 Descending Minneapolis Center
12:32PM 44.7111 -93.1864 20° North 211 243 4,100  Level Minneapolis Center